Time;durP1;ratioP1;P1;durP2;ratioP2;P2;SDS_P1;SDS_P2;PMS_P1;PMS_P2;Temp;Humidity;BMP_temperature;BMP_pressure;BME280_temperature;BME280_humidity;BME280_pressure;Samples;Min_cycle;Max_cycle;Signal;HPM_P1;HPM_P2
2021/09/18 00:01:53;;;;;;;25.67;14.30;;;;;;;16.87;100.00;101548.91;5093848;28;20185;-61
2021/09/18 00:04:19;;;;;;;22.98;13.68;;;;;;;16.84;100.00;101552.00;5071344;28;20036;-61
2021/09/18 00:06:45;;;;;;;29.48;13.77;;;;;;;16.76;100.00;101551.25;5084351;28;20380;-60
2021/09/18 00:09:10;;;;;;;22.85;14.15;;;;;;;16.80;100.00;101561.63;5081000;28;20032;-61
2021/09/18 00:11:36;;;;;;;24.55;14.43;;;;;;;16.77;100.00;101555.59;5068582;28;20046;-60
2021/09/18 00:14:02;;;;;;;26.90;15.05;;;;;;;16.79;100.00;101558.09;5093824;28;20082;-61
2021/09/18 00:16:28;;;;;;;25.77;14.37;;;;;;;16.75;100.00;101556.88;5050538;28;20036;-61
2021/09/18 00:18:53;;;;;;;29.23;14.13;;;;;;;16.73;100.00;101554.41;5066365;28;20044;-57
2021/09/18 00:21:19;;;;;;;29.30;17.35;;;;;;;16.71;100.00;101564.59;5080816;28;20056;-59
2021/09/18 00:23:44;;;;;;;27.30;15.52;;;;;;;16.63;100.00;101551.38;5047841;28;20036;-59
2021/09/18 00:26:10;;;;;;;32.05;16.77;;;;;;;16.63;100.00;101557.59;5064324;28;20029;-60
2021/09/18 00:28:37;;;;;;;31.08;18.23;;;;;;;16.61;100.00;101553.47;5062737;28;20052;-60
2021/09/18 00:31:03;;;;;;;37.57;20.13;;;;;;;16.63;100.00;101551.38;5082141;28;20040;-62
2021/09/18 00:33:28;;;;;;;25.70;15.77;;;;;;;16.68;100.00;101554.22;5063502;28;20846;-60
2021/09/18 00:35:54;;;;;;;28.60;14.97;;;;;;;16.64;100.00;101547.63;5062992;28;20051;-59
2021/09/18 00:38:19;;;;;;;25.87;15.93;;;;;;;16.60;100.00;101551.78;5082873;28;20252;-58
2021/09/18 00:40:45;;;;;;;30.75;16.33;;;;;;;16.65;100.00;101553.84;5075375;28;20283;-61
2021/09/18 00:43:11;;;;;;;33.47;20.63;;;;;;;16.58;100.00;101562.81;5075460;28;20071;-61
2021/09/18 00:45:37;;;;;;;31.55;19.25;;;;;;;16.59;100.00;101559.06;5075020;28;20071;-61
2021/09/18 00:48:03;;;;;;;35.38;17.17;;;;;;;16.57;100.00;101558.47;5093170;28;20141;-61
2021/09/18 00:50:29;;;;;;;29.90;17.73;;;;;;;16.43;100.00;101559.56;5092804;28;20036;-60
2021/09/18 00:52:55;;;;;;;38.45;19.55;;;;;;;16.41;100.00;101554.41;5093291;28;20280;-61
2021/09/18 00:55:21;;;;;;;37.50;18.52;;;;;;;16.35;100.00;101555.25;5092818;28;20062;-54
2021/09/18 00:57:46;;;;;;;27.15;15.77;;;;;;;16.29;100.00;101558.84;5092886;28;20032;-60
2021/09/18 01:00:16;;;;;;;25.25;15.52;;;;;;;16.18;100.00;101554.94;5092843;28;20036;-60
2021/09/18 01:02:42;;;;;;;30.33;15.77;;;;;;;16.10;100.00;101558.72;5092742;28;20044;-60
2021/09/18 01:05:08;;;;;;;34.63;16.35;;;;;;;16.05;100.00;101563.94;5092892;28;20759;-60
2021/09/18 01:07:38;;;;;;;27.57;15.63;;;;;;;15.99;100.00;101562.09;5092878;28;20356;-60
2021/09/18 01:10:07;;;;;;;30.07;15.80;;;;;;;16.00;100.00;101569.97;5084567;28;20288;-60
2021/09/18 01:12:33;;;;;;;29.37;15.73;;;;;;;15.98;100.00;101571.22;5062787;28;20281;-61
2021/09/18 01:14:58;;;;;;;30.70;16.80;;;;;;;15.97;100.00;101564.19;5064556;28;20338;-60
2021/09/18 01:17:24;;;;;;;29.52;15.35;;;;;;;15.94;100.00;101567.31;5063846;28;20372;-60
2021/09/18 01:19:50;;;;;;;26.73;15.38;;;;;;;15.96;100.00;101579.53;5085479;28;20052;-60
2021/09/18 01:22:19;;;;;;;31.67;17.05;;;;;;;15.94;100.00;101565.44;5089830;28;20200;-60
2021/09/18 01:24:45;;;;;;;36.03;17.40;;;;;;;15.95;100.00;101572.47;5092597;28;20043;-61
2021/09/18 01:27:10;;;;;;;29.53;17.93;;;;;;;15.94;100.00;101567.31;5092910;28;20265;-60
2021/09/18 01:29:36;;;;;;;32.92;16.70;;;;;;;15.91;100.00;101557.75;5073213;28;20281;-60
2021/09/18 01:32:03;;;;;;;29.55;17.98;;;;;;;15.91;100.00;101569.41;5054511;28;20039;-60
2021/09/18 01:34:29;;;;;;;29.37;17.73;;;;;;;15.89;100.00;101560.66;5054429;28;20039;-60
2021/09/18 01:36:54;;;;;;;32.00;17.88;;;;;;;15.91;100.00;101558.59;5072460;28;20732;-61
2021/09/18 01:39:21;;;;;;;31.48;18.88;;;;;;;15.93;100.00;101569.16;5072671;28;20400;-61
2021/09/18 01:41:47;;;;;;;29.13;17.80;;;;;;;15.89;100.00;101567.94;5072147;28;20422;-60
2021/09/18 01:44:14;;;;;;;36.38;18.33;;;;;;;15.89;100.00;101563.38;5072442;28;20328;-60
2021/09/18 01:46:40;;;;;;;30.00;18.53;;;;;;;15.85;100.00;101570.19;5078433;28;20472;-59
2021/09/18 01:49:13;;;;;;;28.50;17.38;;;;;;;15.81;100.00;101562.75;5092313;28;20713;-60
2021/09/18 01:51:52;;;;;;;32.00;19.67;;;;;;;15.75;100.00;101564.44;5094391;28;20043;-60
2021/09/18 01:54:17;;;;;;;35.83;20.13;;;;;;;15.74;100.00;101558.19;5096084;28;20273;-61
2021/09/18 01:56:43;;;;;;;33.60;19.40;;;;;;;15.74;100.00;101560.09;5096161;28;20267;-61
2021/09/18 01:59:08;;;;;;;27.40;17.27;;;;;;;15.74;100.00;101552.81;5096732;28;20649;-60
2021/09/18 02:01:34;;;;;;;34.93;21.27;;;;;;;15.66;100.00;101546.81;5095610;28;20339;-59
2021/09/18 02:03:59;;;;;;;41.80;23.50;;;;;;;15.61;100.00;101559.06;5095948;28;20044;-61
2021/09/18 02:06:26;;;;;;;41.33;24.33;;;;;;;15.66;100.00;101560.28;5095981;28;20111;-60
2021/09/18 02:08:52;;;;;;;37.00;21.90;;;;;;;15.61;100.00;101545.59;5095892;28;20074;-61
2021/09/18 02:11:18;;;;;;;37.05;21.92;;;;;;;15.61;100.00;101552.88;5096137;28;20296;-61
2021/09/18 02:13:43;;;;;;;40.97;23.00;;;;;;;15.63;100.00;101545.38;5077544;28;20123;-60
2021/09/18 02:16:08;;;;;;;38.87;23.93;;;;;;;15.60;100.00;101545.81;5096073;28;20269;-60
2021/09/18 02:18:34;;;;;;;43.83;24.40;;;;;;;15.56;100.00;101545.41;5096178;28;20318;-61
2021/09/18 02:21:00;;;;;;;39.78;23.73;;;;;;;15.56;100.00;101542.72;5096129;28;20044;-61
2021/09/18 02:23:25;;;;;;;45.33;25.10;;;;;;;15.53;100.00;101526.13;5095820;28;20040;-60
2021/09/18 02:25:51;;;;;;;42.63;24.52;;;;;;;15.59;100.00;101536.88;5095735;28;20039;-60
2021/09/18 02:28:16;;;;;;;44.67;24.73;;;;;;;15.59;100.00;101536.88;5095633;28;20131;-61
2021/09/18 02:30:42;;;;;;;43.10;23.17;;;;;;;15.63;100.00;101540.81;5095356;28;20058;-60
2021/09/18 02:33:08;;;;;;;42.60;24.30;;;;;;;15.65;100.00;101537.06;5077568;28;20364;-60
2021/09/18 02:35:34;;;;;;;47.08;24.95;;;;;;;15.71;100.00;101536.25;5095284;28;20092;-60
2021/09/18 02:38:03;;;;;;;40.33;23.52;;;;;;;15.51;100.00;101539.81;5077639;28;20074;-60
2021/09/18 02:40:29;;;;;;;40.40;23.93;;;;;;;15.51;100.00;101537.13;5095636;28;20070;-61
2021/09/18 02:42:58;;;;;;;39.58;24.00;;;;;;;15.49;100.00;101531.13;5077578;28;20668;-61
2021/09/18 02:45:25;;;;;;;38.23;22.30;;;;;;;15.48;100.00;101526.78;5095805;28;20039;-60
2021/09/18 02:47:51;;;;;;;37.38;23.10;;;;;;;15.45;100.00;101528.00;5094919;28;20291;-61
2021/09/18 02:50:19;;;;;;;36.30;22.95;;;;;;;15.44;100.00;101528.22;5095529;28;20063;-61
2021/09/18 02:52:45;;;;;;;36.27;22.97;;;;;;;15.41;100.00;101517.84;5077096;28;20123;-61
2021/09/18 02:55:12;;;;;;;48.38;24.13;;;;;;;15.44;100.00;101520.97;5077157;28;20351;-62
2021/09/18 02:57:38;;;;;;;35.23;22.70;;;;;;;15.40;100.00;101524.28;5076771;28;20040;-61
2021/09/18 03:00:05;;;;;;;40.70;24.60;;;;;;;15.38;100.00;101520.97;5095418;28;20666;-62
2021/09/18 03:02:31;;;;;;;51.20;28.00;;;;;;;15.38;100.00;101526.38;5076455;28;20043;-61
2021/09/18 03:04:56;;;;;;;47.60;27.80;;;;;;;15.38;100.00;101523.66;5095182;28;20287;-62
2021/09/18 03:07:22;;;;;;;52.22;26.77;;;;;;;15.36;100.00;101525.75;5095000;28;20036;-61
2021/09/18 03:09:47;;;;;;;39.60;25.43;;;;;;;15.33;100.00;101522.44;5094784;28;20120;-60
2021/09/18 03:12:13;;;;;;;42.38;24.60;;;;;;;15.34;100.00;101520.59;5094680;28;20040;-61
2021/09/18 03:14:39;;;;;;;41.67;25.13;;;;;;;15.34;100.00;101524.09;5094618;28;20101;-60
2021/09/18 03:17:04;;;;;;;37.17;22.85;;;;;;;15.34;100.00;101525.97;5094818;28;20285;-60
2021/09/18 03:19:30;;;;;;;34.97;22.93;;;;;;;15.31;100.00;101524.53;5060071;28;20093;-62
2021/09/18 03:21:55;;;;;;;41.17;22.92;;;;;;;15.31;100.00;101520.97;5094257;28;20287;-61
2021/09/18 03:24:21;;;;;;;39.17;22.60;;;;;;;15.37;100.00;101517.47;5095048;28;20075;-60
2021/09/18 03:26:46;;;;;;;38.08;22.23;;;;;;;15.37;100.00;101522.03;5076288;28;20648;-61
2021/09/18 03:29:12;;;;;;;36.70;21.95;;;;;;;15.36;100.00;101528.44;5094396;28;20032;-62
2021/09/18 03:31:40;;;;;;;38.00;22.42;;;;;;;15.35;100.00;101519.56;5076264;28;20219;-61
2021/09/18 03:34:05;;;;;;;40.60;22.70;;;;;;;15.37;100.00;101519.31;5059828;28;20329;-60
2021/09/18 03:36:31;;;;;;;41.40;22.50;;;;;;;15.34;100.00;101520.59;5094496;28;20281;-60
2021/09/18 03:38:56;;;;;;;40.58;22.33;;;;;;;15.30;100.00;101524.72;5094291;28;20583;-61
2021/09/18 03:41:22;;;;;;;39.60;22.67;;;;;;;15.27;100.00;101523.28;5094470;28;20118;-60
2021/09/18 03:43:47;;;;;;;39.70;23.10;;;;;;;15.29;100.00;101523.06;5094132;28;20111;-62
2021/09/18 03:46:13;;;;;;;39.70;24.10;;;;;;;15.27;100.00;101525.97;5094078;28;20036;-60
2021/09/18 03:48:38;;;;;;;39.40;22.75;;;;;;;15.25;100.00;101530.75;5094146;28;20043;-59
2021/09/18 03:51:04;;;;;;;49.53;24.02;;;;;;;15.22;100.00;101533.84;5094682;28;20032;-60
2021/09/18 03:53:31;;;;;;;35.83;22.92;;;;;;;15.18;100.00;101530.75;5093956;28;20051;-61
2021/09/18 03:55:57;;;;;;;37.03;22.60;;;;;;;15.09;100.00;101531.19;5093766;28;20437;-61
2021/09/18 03:58:23;;;;;;;35.67;22.50;;;;;;;15.05;100.00;101526.22;5094241;28;20268;-61
2021/09/18 04:00:49;;;;;;;35.83;22.45;;;;;;;15.05;100.00;101533.47;5093340;28;20131;-60
2021/09/18 04:03:14;;;;;;;38.92;23.05;;;;;;;14.99;100.00;101532.44;5093774;28;20036;-61
2021/09/18 04:05:40;;;;;;;39.37;22.40;;;;;;;14.92;100.00;101526.22;5090044;28;20032;-58
2021/09/18 04:08:07;;;;;;;33.67;22.45;;;;;;;14.95;100.00;101531.19;5075221;28;20700;-61
2021/09/18 04:10:33;;;;;;;35.47;22.00;;;;;;;14.89;100.00;101527.47;5093667;28;20171;-61
2021/09/18 04:12:58;;;;;;;31.15;20.80;;;;;;;14.89;100.00;101527.47;5093163;28;20357;-61
2021/09/18 04:15:24;;;;;;;37.28;22.95;;;;;;;14.89;100.00;101524.78;5090787;28;20040;-61
2021/09/18 04:17:49;;;;;;;35.03;21.48;;;;;;;14.85;100.00;101536.16;5092966;28;20039;-61
2021/09/18 04:20:15;;;;;;;41.08;22.98;;;;;;;14.84;100.00;101539.91;5093531;28;20044;-62
2021/09/18 04:22:40;;;;;;;36.05;23.02;;;;;;;14.79;100.00;101529.75;5093702;28;20036;-62
2021/09/18 04:25:06;;;;;;;36.63;23.23;;;;;;;14.79;100.00;101531.63;5093279;28;20071;-61
2021/09/18 04:27:32;;;;;;;36.03;22.83;;;;;;;14.79;100.00;101542.38;5093626;28;20051;-62
2021/09/18 04:29:57;;;;;;;35.28;21.27;;;;;;;14.76;100.00;101531.00;5093310;28;20040;-61
2021/09/18 04:32:23;;;;;;;35.17;20.87;;;;;;;14.73;100.00;101533.25;5074803;28;20040;-61
2021/09/18 04:34:48;;;;;;;34.63;20.40;;;;;;;14.70;100.00;101537.16;5076229;28;20074;-60
2021/09/18 04:37:14;;;;;;;32.35;19.80;;;;;;;14.69;100.00;101535.50;5093926;28;20659;-62
2021/09/18 04:39:39;;;;;;;31.40;21.23;;;;;;;14.67;100.00;101544.84;5093090;28;20040;-61
2021/09/18 04:42:05;;;;;;;36.42;20.58;;;;;;;14.63;100.00;101539.03;5074934;28;20040;-61
2021/09/18 04:44:30;;;;;;;34.38;20.58;;;;;;;14.61;100.00;101547.28;5093171;28;20112;-60
2021/09/18 04:46:56;;;;;;;31.67;20.10;;;;;;;14.59;100.00;101548.53;5092956;28;20394;-61
2021/09/18 04:49:21;;;;;;;30.27;20.77;;;;;;;14.58;100.00;101549.56;5092979;28;20459;-61
2021/09/18 04:51:47;;;;;;;33.83;20.65;;;;;;;14.58;100.00;101557.66;5092903;28;20256;-61
2021/09/18 04:54:12;;;;;;;35.60;22.63;;;;;;;14.53;100.00;101555.56;5093445;28;20048;-62
2021/09/18 04:56:38;;;;;;;34.50;21.37;;;;;;;14.48;100.00;101556.16;5093144;28;20031;-61
2021/09/18 04:59:03;;;;;;;34.47;20.43;;;;;;;14.47;100.00;101561.78;5092966;28;20044;-62
2021/09/18 05:01:29;;;;;;;38.70;21.87;;;;;;;14.40;100.00;101556.38;5092744;28;20284;-61
2021/09/18 05:03:55;;;;;;;40.78;23.27;;;;;;;14.39;100.00;101556.56;5092991;28;20276;-60
2021/09/18 05:06:20;;;;;;;38.03;22.97;;;;;;;14.38;100.00;101574.59;5074923;28;20423;-61
2021/09/18 05:08:46;;;;;;;43.50;25.07;;;;;;;14.37;100.00;101567.53;5093302;28;20284;-57
2021/09/18 05:11:11;;;;;;;38.90;23.83;;;;;;;14.33;100.00;101563.59;5090247;28;21684;-59
2021/09/18 05:13:37;;;;;;;44.10;24.93;;;;;;;14.32;100.00;101570.03;5080335;28;20340;-61
2021/09/18 05:16:02;;;;;;;43.58;26.15;;;;;;;14.32;100.00;101575.41;5071531;28;20032;-61
2021/09/18 05:18:30;;;;;;;44.35;25.50;;;;;;;14.33;100.00;101577.88;5080325;28;20084;-61
2021/09/18 05:20:56;;;;;;;46.80;25.33;;;;;;;14.35;100.00;101577.69;5072386;28;20099;-61
2021/09/18 05:23:22;;;;;;;46.65;24.05;;;;;;;14.36;100.00;101578.50;5072432;28;20281;-61
2021/09/18 05:25:47;;;;;;;47.15;25.08;;;;;;;14.32;100.00;101576.22;5075257;28;20121;-60
2021/09/18 05:28:13;;;;;;;44.28;24.67;;;;;;;14.39;100.00;101578.09;5076484;28;20041;-61
2021/09/18 05:30:38;;;;;;;38.87;22.67;;;;;;;14.38;100.00;101571.88;5076253;28;20036;-61
2021/09/18 05:33:04;;;;;;;42.25;23.25;;;;;;;14.41;100.00;101579.56;5076027;28;20037;-61
2021/09/18 05:35:29;;;;;;;43.88;22.50;;;;;;;14.41;100.00;101578.72;5059814;28;20032;-61
2021/09/18 05:37:55;;;;;;;42.80;22.20;;;;;;;14.34;100.00;101574.16;5096419;28;20040;-60
2021/09/18 05:40:24;;;;;;;36.38;20.85;;;;;;;14.43;100.00;101582.06;5079515;28;20119;-62
2021/09/18 05:42:50;;;;;;;40.73;20.67;;;;;;;14.41;100.00;101573.31;5096968;28;20043;-58
2021/09/18 05:45:16;;;;;;;39.10;19.92;;;;;;;14.49;100.00;101587.44;5078770;28;20673;-61
2021/09/18 05:47:42;;;;;;;30.30;17.60;;;;;;;14.51;100.00;101591.78;5096432;28;20036;-61
2021/09/18 05:50:07;;;;;;;28.98;18.42;;;;;;;14.55;100.00;101590.38;5096721;28;20075;-61
2021/09/18 05:52:33;;;;;;;30.58;18.45;;;;;;;14.57;100.00;101591.81;5096783;28;20088;-61
2021/09/18 05:54:59;;;;;;;33.53;18.48;;;;;;;14.58;100.00;101595.34;5096017;28;20035;-62
2021/09/18 05:57:24;;;;;;;36.25;18.65;;;;;;;14.59;100.00;101589.72;5078320;28;20036;-62
2021/09/18 05:59:49;;;;;;;35.45;19.17;;;;;;;14.65;100.00;101589.94;5096232;28;20471;-61
2021/09/18 06:02:15;;;;;;;36.23;20.57;;;;;;;14.68;100.00;101601.13;5079086;28;20060;-61
2021/09/18 06:04:40;;;;;;;25.20;16.73;;;;;;;14.69;100.00;101597.41;5075712;28;20123;-62
2021/09/18 06:07:06;;;;;;;26.88;15.95;;;;;;;14.74;100.00;101597.66;5068467;28;20048;-61
2021/09/18 06:09:32;;;;;;;23.35;14.88;;;;;;;14.81;100.00;101610.31;5069659;28;20117;-60
2021/09/18 06:11:57;;;;;;;29.60;16.02;;;;;;;14.83;100.00;101600.16;5084159;28;20107;-61
2021/09/18 06:14:23;;;;;;;28.25;15.48;;;;;;;14.88;100.00;101609.31;5076543;28;20036;-61
2021/09/18 06:16:48;;;;;;;39.42;15.90;;;;;;;14.92;100.00;101609.69;5075508;28;20089;-62
2021/09/18 06:19:18;;;;;;;26.20;15.90;;;;;;;14.96;100.00;101602.88;5075656;28;20040;-61
2021/09/18 06:21:44;;;;;;;29.40;16.67;;;;;;;14.99;100.00;101591.69;5077797;28;20361;-62
2021/09/18 06:24:11;;;;;;;32.67;17.75;;;;;;;15.05;100.00;101607.03;5095836;28;20786;-62
2021/09/18 06:26:38;;;;;;;28.50;19.10;;;;;;;15.01;100.00;101605.78;5096713;28;20043;-61
2021/09/18 06:29:04;;;;;;;35.77;19.00;;;;;;;15.11;100.00;101605.38;5096448;28;20257;-60
2021/09/18 06:31:30;;;;;;;46.95;26.50;;;;;;;15.20;100.00;101606.81;5095894;28;20327;-61
2021/09/18 06:33:55;;;;;;;39.72;20.77;;;;;;;15.26;100.00;101605.16;5095985;28;20028;-59
2021/09/18 06:36:21;;;;;;;38.60;19.90;;;;;;;15.32;100.00;101619.66;5095500;28;20058;-62
2021/09/18 06:38:46;;;;;;;40.70;21.00;;;;;;;15.36;100.00;101617.38;5096453;28;20257;-61
2021/09/18 06:41:12;;;;;;;32.63;18.27;;;;;;;15.40;100.00;101621.31;5085177;28;20285;-61
2021/09/18 06:43:37;;;;;;;36.28;19.70;;;;;;;15.38;100.00;101613.44;5075773;28;20051;-61
2021/09/18 06:46:03;;;;;;;35.28;20.45;;;;;;;15.50;100.00;101621.72;5075022;28;20032;-62
2021/09/18 06:48:28;;;;;;;38.00;21.25;;;;;;;15.56;100.00;101622.75;5075386;28;20473;-61
2021/09/18 06:50:54;;;;;;;46.40;23.08;;;;;;;15.63;100.00;101623.56;5075119;28;20053;-62
2021/09/18 06:53:20;;;;;;;41.05;22.98;;;;;;;15.65;100.00;101626.03;5056921;28;20071;-61
2021/09/18 06:55:45;;;;;;;74.68;35.72;;;;;;;15.69;100.00;101620.03;5057477;28;20047;-61
2021/09/18 06:58:11;;;;;;;41.38;23.10;;;;;;;15.78;100.00;101629.53;5040298;28;20060;-62
2021/09/18 07:00:37;;;;;;;39.80;20.55;;;;;;;15.85;100.00;101628.72;5056873;28;20056;-60
2021/09/18 07:03:02;;;;;;;35.88;20.67;;;;;;;15.90;100.00;101632.44;5057172;28;20052;-60
2021/09/18 07:05:28;;;;;;;43.38;22.40;;;;;;;15.98;100.00;101635.97;5074935;28;20119;-61
2021/09/18 07:07:53;;;;;;;37.75;20.77;;;;;;;16.04;100.00;101635.13;5074826;28;20051;-61
2021/09/18 07:10:19;;;;;;;37.50;20.00;;;;;;;16.08;100.00;101641.75;5074161;28;20036;-62
2021/09/18 07:12:44;;;;;;;40.90;20.83;;;;;;;16.12;100.00;101640.28;5056791;28;20037;-62
2021/09/18 07:15:11;;;;;;;38.58;20.63;;;;;;;16.16;100.00;101638.81;5074461;28;20499;-61
2021/09/18 07:17:36;;;;;;;43.83;22.85;;;;;;;16.22;100.00;101642.53;5074212;28;20041;-60
2021/09/18 07:20:04;;;;;;;37.22;19.90;;;;;;;16.30;100.00;101636.91;5074329;28;20113;-61
2021/09/18 07:22:29;;;;;;;35.20;19.80;;;;;;;16.39;100.00;101645.59;5063416;28;20124;-61
2021/09/18 07:24:55;;;;;;;36.95;19.38;;;;;;;16.46;100.00;101638.28;5078108;28;20123;-61
2021/09/18 07:27:21;;;;;;;39.15;19.85;;;;;;;16.52;100.00;101636.59;5094116;28;20420;-61
2021/09/18 07:29:50;;;;;;;37.25;19.08;;;;;;;16.62;100.00;101644.22;5094790;28;20039;-61
2021/09/18 07:32:19;;;;;;;36.67;20.07;;;;;;;16.62;100.00;101630.72;5094131;28;20077;-61
2021/09/18 07:34:45;;;;;;;41.77;20.73;;;;;;;16.74;100.00;101647.88;5075227;28;20107;-61
2021/09/18 07:37:11;;;;;;;35.65;18.98;;;;;;;16.81;100.00;101638.91;5073904;28;20599;-60
2021/09/18 07:39:37;;;;;;;44.20;18.92;;;;;;;16.95;100.00;101645.03;5082227;28;20495;-60
2021/09/18 07:42:03;;;;;;;36.00;19.15;;;;;;;17.04;100.00;101646.47;5063037;28;20577;-61
2021/09/18 07:44:29;;;;;;;33.97;18.83;;;;;;;17.11;100.00;101641.84;5064271;28;20479;-61
2021/09/18 07:46:55;;;;;;;38.20;20.85;;;;;;;17.23;100.00;101655.47;5063161;28;20063;-59
2021/09/18 07:49:20;;;;;;;46.40;21.70;;;;;;;17.26;100.00;101641.50;5082256;28;20032;-61
2021/09/18 07:51:46;;;;;;;37.00;21.10;;;;;;;17.40;100.00;101646.81;5083550;28;20105;-60
2021/09/18 07:54:12;;;;;;;42.85;22.63;;;;;;;17.51;100.00;101639.84;5063593;28;20040;-62
2021/09/18 07:56:37;;;;;;;59.05;32.72;;;;;;;17.65;100.00;101643.25;5083915;28;20065;-63
2021/09/18 07:59:03;;;;;;;37.03;20.85;;;;;;;17.76;100.00;101646.03;5063726;28;20032;-61
2021/09/18 08:01:30;;;;;;;42.80;21.50;;;;;;;17.90;100.00;101657.56;5047537;28;20467;-62
2021/09/18 08:04:03;;;;;;;27.30;17.60;;;;;;;17.96;100.00;101642.31;5083260;28;20055;-60
2021/09/18 08:06:35;;;;;;;30.37;16.20;;;;;;;18.06;100.00;101649.94;5065625;28;20032;-61
2021/09/18 08:09:03;;;;;;;29.53;18.70;;;;;;;18.16;100.00;101650.22;5064519;28;20054;-60
2021/09/18 08:11:29;;;;;;;32.67;18.43;;;;;;;18.24;100.00;101646.38;5082121;28;20095;-64
2021/09/18 08:13:57;;;;;;;35.47;19.42;;;;;;;20.26;100.00;101650.44;5082776;28;20127;-60
2021/09/18 08:16:23;;;;;;;30.40;18.23;;;;;;;20.98;100.00;101648.25;5080792;28;20036;-60
2021/09/18 08:18:48;;;;;;;;;;;;;;;21.25;100.00;101653.88;5082666;28;20032;-61
2021/09/18 08:21:14;;;;;;;31.13;17.23;;;;;;;19.35;100.00;101642.47;5062904;28;19926;-59
2021/09/18 08:23:40;;;;;;;30.60;16.73;;;;;;;19.03;100.00;101652.81;5083095;28;20093;-61
2021/09/18 08:26:08;;;;;;;31.17;17.90;;;;;;;19.02;100.00;101643.03;5082532;28;20480;-59
2021/09/18 08:28:33;;;;;;;27.00;15.07;;;;;;;19.19;100.00;101659.47;5083040;28;20169;-61
2021/09/18 08:30:59;;;;;;;32.40;18.13;;;;;;;19.29;100.00;101657.00;5074465;28;20425;-60
2021/09/18 08:33:25;;;;;;;27.25;16.85;;;;;;;19.44;100.00;101664.66;5071987;28;20063;-61
2021/09/18 08:35:50;;;;;;;29.17;17.38;;;;;;;19.59;100.00;101666.91;5078613;28;20555;-61
2021/09/18 08:38:18;;;;;;;30.25;17.50;;;;;;;19.69;100.00;101649.22;5074405;28;20109;-63
2021/09/18 08:40:44;;;;;;;29.00;17.23;;;;;;;19.92;100.00;101660.06;5074996;28;20433;-61
2021/09/18 08:43:09;;;;;;;33.08;17.77;;;;;;;20.19;100.00;101664.97;5057926;28;20613;-62
2021/09/18 08:45:36;;;;;;;35.17;18.95;;;;;;;20.56;100.00;101669.22;5074656;28;20131;-61
2021/09/18 08:48:03;;;;;;;;;;;;;;;20.92;100.00;101667.19;5092979;28;20032;-62
2021/09/18 08:50:30;;;;;;;28.70;16.50;;;;;;;21.43;100.00;101665.53;5072194;28;19997;-62
2021/09/18 08:52:55;;;;;;;48.43;24.27;;;;;;;21.69;100.00;101668.69;5072205;28;20162;-62
2021/09/18 08:55:22;;;;;;;30.02;15.88;;;;;;;22.20;100.00;101669.38;5072159;28;20106;-62
2021/09/18 08:57:48;;;;;;;28.63;16.03;;;;;;;22.42;100.00;101665.81;5072182;28;20509;-64
2021/09/18 09:00:32;;;;;;;24.40;14.33;;;;;;;22.87;100.00;101665.75;5037336;28;20071;-62
2021/09/18 09:03:04;;;;;;;25.83;14.63;;;;;;;23.31;100.00;101664.75;5073009;28;20052;-62
2021/09/18 09:05:34;;;;;;;22.00;14.07;;;;;;;23.61;100.00;101666.88;5072230;28;20040;-62
2021/09/18 09:08:07;;;;;;;25.93;16.53;;;;;;;23.98;100.00;101667.03;5054370;28;20473;-62
2021/09/18 09:10:34;;;;;;;24.80;13.33;;;;;;;24.19;100.00;101673.47;5054342;28;20412;-62
2021/09/18 09:13:12;;;;;;;17.67;11.73;;;;;;;24.66;100.00;101670.84;5037996;28;20031;-62
2021/09/18 09:15:38;;;;;;;17.33;10.50;;;;;;;25.16;100.00;101682.13;5054987;28;20047;-62
2021/09/18 09:18:25;;;;;;;16.37;10.47;;;;;;;25.35;100.00;101679.66;5072279;28;20389;-62
2021/09/18 09:21:07;;;;;;;20.25;10.95;;;;;;;25.94;100.00;101676.53;5053985;28;20044;-61
2021/09/18 09:23:33;;;;;;;18.27;11.90;;;;;;;26.07;100.00;101681.44;5053894;28;20135;-60
2021/09/18 09:25:59;;;;;;;20.08;10.50;;;;;;;26.86;87.95;101675.22;5072133;28;20172;-62
2021/09/18 09:28:40;;;;;;;16.52;9.82;;;;;;;27.47;82.20;101686.78;5072153;28;20044;-61
2021/09/18 09:31:12;;;;;;;14.30;9.65;;;;;;;27.97;74.36;101685.72;5054060;28;20048;-60
2021/09/18 09:33:55;;;;;;;17.00;9.63;;;;;;;28.25;72.14;101682.38;5072180;28;20036;-60
2021/09/18 09:36:20;;;;;;;13.52;9.27;;;;;;;28.18;69.36;101691.81;5071998;28;20119;-61
2021/09/18 09:39:14;;;;;;;13.50;9.70;;;;;;;28.37;68.25;101692.94;5072337;28;20060;-61
2021/09/18 09:41:46;;;;;;;18.02;10.05;;;;;;;28.44;68.94;101694.22;5070126;28;20134;-61
2021/09/18 09:44:20;;;;;;;12.90;9.18;;;;;;;29.12;64.15;101691.25;5072023;28;20068;-61
2021/09/18 09:47:05;;;;;;;13.88;9.57;;;;;;;29.41;60.33;101684.75;5054721;28;20117;-60
2021/09/18 09:50:00;;;;;;;18.02;10.05;;;;;;;29.81;55.85;101692.53;5071922;28;20183;-61
2021/09/18 09:52:27;;;;;;;15.70;9.95;;;;;;;30.10;56.91;101691.41;5050480;28;20053;-60
2021/09/18 09:54:58;;;;;;;14.18;8.50;;;;;;;30.21;52.97;101696.69;5077040;28;20031;-60
2021/09/18 09:57:24;;;;;;;12.13;8.55;;;;;;;30.15;53.34;101696.00;5080979;28;20041;-61
2021/09/18 09:59:56;;;;;;;19.70;11.30;;;;;;;30.28;51.22;101697.09;5080213;28;20030;-61
2021/09/18 10:02:23;;;;;;;13.48;8.15;;;;;;;30.28;52.08;101700.66;5079649;28;20048;-60
2021/09/18 10:04:50;;;;;;;13.40;7.93;;;;;;;30.35;52.67;101705.75;5063728;28;20032;-61
2021/09/18 10:07:16;;;;;;;14.50;8.23;;;;;;;30.30;52.34;101706.66;5080172;28;20056;-60
2021/09/18 10:09:43;;;;;;;9.73;6.18;;;;;;;30.48;48.84;101712.38;5080131;28;20043;-60
2021/09/18 10:12:11;;;;;;;9.13;6.57;;;;;;;30.22;49.89;101706.59;5065042;28;20151;-60
2021/09/18 10:14:40;;;;;;;9.57;5.88;;;;;;;30.22;48.66;101701.91;5084158;28;20115;-60
2021/09/18 10:17:09;;;;;;;11.27;5.97;;;;;;;30.19;49.30;101700.56;5077571;28;20475;-61
2021/09/18 10:24:49;;;;;;;14.57;7.72;;;;;;;30.28;51.59;101697.09;5058713;28;20044;-62
2021/09/18 10:27:20;;;;;;;11.80;6.78;;;;;;;30.76;50.26;101693.81;5057780;28;20549;-60
2021/09/18 10:29:47;;;;;;;10.93;7.03;;;;;;;31.07;49.50;101686.69;5075408;28;20037;-62
2021/09/18 10:32:13;;;;;;;8.90;5.78;;;;;;;31.61;48.19;101692.19;5075845;28;20090;-62
2021/09/18 10:34:39;;;;;;;10.05;6.05;;;;;;;31.92;46.66;101682.22;5060860;28;20071;-62
2021/09/18 10:37:34;;;;;;;8.73;5.38;;;;;;;32.58;44.26;101689.66;5078363;28;20059;-62
2021/09/18 10:40:06;;;;;;;8.05;4.90;;;;;;;33.19;43.43;101693.47;5094993;28;20032;-61
2021/09/18 10:42:36;;;;;;;6.85;4.72;;;;;;;33.47;41.11;101698.66;5095313;28;20047;-62
2021/09/18 10:45:04;;;;;;;8.13;4.30;;;;;;;33.96;41.08;101689.13;5095311;28;20511;-62
2021/09/18 10:47:37;;;;;;;8.35;5.20;;;;;;;34.29;39.61;101699.50;5088974;28;20056;-61
2021/09/18 10:50:24;;;;;;;8.82;5.00;;;;;;;34.69;38.49;101696.25;5083120;28;20040;-62
2021/09/18 10:53:11;;;;;;;6.90;3.97;;;;;;;35.04;37.38;101686.78;5064918;28;20040;-61
2021/09/18 10:55:57;;;;;;;5.97;3.45;;;;;;;35.51;34.80;101691.16;5083608;28;20044;-60
2021/09/18 10:58:24;;;;;;;10.77;7.18;;;;;;;35.71;34.06;101689.44;5084624;28;20416;-62
2021/09/18 11:00:56;;;;;;;5.28;2.75;;;;;;;36.10;31.72;101689.03;5066645;28;20475;-62
2021/09/18 11:03:46;;;;;;;4.97;3.22;;;;;;;36.34;32.28;101690.13;5066368;28;20449;-60
2021/09/18 11:06:36;;;;;;;8.60;5.60;;;;;;;36.17;31.70;101680.91;5082680;28;20107;-59
2021/09/18 11:09:02;;;;;;;5.63;2.53;;;;;;;36.97;29.56;101679.53;5057590;28;20064;-61
2021/09/18 11:11:28;;;;;;;3.50;1.80;;;;;;;36.93;28.03;101687.00;5084421;28;20062;-58